Coquimbo, Chile
Current Conditions -  °F | °C
As of 5:00 AM on Friday 24 Oct 2014 (Local Time) from SCSE Reporting Station
Overcast Overcast  
Wind Chill: 54°   Ceiling: 700
Heat Index: 54°   Visibility: 6mi
Dew Point: 52°   Wind: 0mph
Humidity: 94%   Direction: NA
Pressure: 29.94"   Gusts: NA
Location:  29.96°S, 71.33°W
Report Text: SCSE 240900Z 00000KT 9999 OVC007 12/11 Q1014
Loading
Personal Weather Stations






























Interactive Weather Map
Tropical Storm Tracking
New forecast layout! Learn more

10-Day Weather Forecast

Advertisements
Track Severe Weather on mobile